Time;durP1;ratioP1;P1;durP2;ratioP2;P2;SDS_P1;SDS_P2;PMS_P1;PMS_P2;Temp;Humidity;BMP_temperature;BMP_pressure;BME280_temperature;BME280_humidity;BME280_pressure;Samples;Min_cycle;Max_cycle;Signal;HPM_P1;HPM_P2
2023/07/10 00:01:02;;;;;;;4.47;0.82;;;;;;;-145.06;0.00;60892.56;5978332;23;20563;-92
2023/07/10 00:03:42;;;;;;;1.23;1.00;;;;;;;-145.06;0.00;60892.56;5979057;23;20040;-91
2023/07/10 00:06:20;;;;;;;;;;;;;;;-145.06;0.00;60892.56;5947173;23;20013;-92
2023/07/10 00:08:59;;;;;;;1.10;0.98;;;;;;;-145.06;0.00;60892.56;5979145;23;20355;-91
2023/07/10 00:11:40;;;;;;;1.23;0.90;;;;;;;-145.06;0.00;60892.56;5946334;23;20005;-91
2023/07/10 00:14:23;;;;;;;1.50;0.95;;;;;;;-145.06;0.00;60892.56;5946073;23;20084;-92
2023/07/10 00:17:03;;;;;;;0.98;0.85;;;;;;;-145.06;0.00;60892.56;5945610;23;20080;-91
2023/07/10 00:19:42;;;;;;;1.00;0.90;;;;;;;-145.06;0.00;60892.56;5945578;23;20009;-92
2023/07/10 00:22:21;;;;;;;1.77;0.88;;;;;;;-145.06;0.00;60892.56;5946878;23;20013;-91
2023/07/10 00:25:00;;;;;;;1.25;1.00;;;;;;;-145.06;0.00;60892.56;5944557;23;20392;-92
2023/07/10 00:27:38;;;;;;;1.10;1.00;;;;;;;-145.06;0.00;60892.56;5946292;23;20009;-92
2023/07/10 00:30:20;;;;;;;3.83;1.27;;;;;;;-145.06;0.00;60892.56;5944858;23;20005;-92
2023/07/10 00:32:59;;;;;;;1.25;1.10;;;;;;;-145.06;0.00;60892.56;5946449;23;20353;-92
2023/07/10 00:35:39;;;;;;;1.77;1.27;;;;;;;-145.06;0.00;60892.56;5945061;23;20009;-92
2023/07/10 00:38:28;;;;;;;1.95;1.27;;;;;;;-145.06;0.00;60892.56;5945770;23;20008;-91
2023/07/10 00:41:10;;;;;;;1.48;1.13;;;;;;;-145.06;0.00;60892.56;5976785;23;20009;-92
2023/07/10 00:43:56;;;;;;;1.67;1.13;;;;;;;-145.06;0.00;60892.56;5945988;23;20005;-92
2023/07/10 00:46:41;;;;;;;1.30;1.10;;;;;;;-145.06;0.00;60892.56;5946641;23;20408;-93
2023/07/10 00:49:38;;;;;;;1.27;1.10;;;;;;;-145.06;0.00;60892.56;5945872;23;20013;-90
2023/07/10 00:52:25;;;;;;;1.02;0.90;;;;;;;-145.06;0.00;60892.56;5946934;23;20024;-92
2023/07/10 00:55:36;;;;;;;1.40;0.93;;;;;;;-145.06;0.00;60892.56;5944257;23;20001;-92
2023/07/10 00:58:20;;;;;;;1.33;0.93;;;;;;;-145.06;0.00;60892.56;5940300;23;20429;-93
2023/07/10 01:01:14;;;;;;;1.52;1.00;;;;;;;23.56;0.00;81976.16;5978467;23;20313;-92
2023/07/10 01:03:54;;;;;;;1.40;1.00;;;;;;;-145.06;0.00;60892.56;5946384;23;20009;-92
2023/07/10 01:06:33;;;;;;;1.10;0.98;;;;;;;-145.06;0.00;60892.56;5946090;23;20076;-93
2023/07/10 01:09:12;;;;;;;1.50;1.00;;;;;;;-145.06;0.00;60892.56;5946347;23;20009;-92
2023/07/10 01:11:51;;;;;;;1.88;1.30;;;;;;;23.49;0.00;60892.56;5945101;23;20454;-93
2023/07/10 01:14:34;;;;;;;1.90;1.13;;;;;;;-145.06;0.00;60892.56;5968393;23;20036;-92
2023/07/10 01:17:13;;;;;;;1.80;1.10;;;;;;;-145.06;0.00;60892.56;5946116;23;20013;-93
2023/07/10 01:20:00;;;;;;;1.88;1.33;;;;;;;23.46;0.00;60892.56;5946796;23;20013;-92
2023/07/10 01:22:39;;;;;;;2.15;1.13;;;;;;;23.43;0.00;60892.56;5947152;23;20714;-91
2023/07/10 01:25:18;;;;;;;2.00;1.13;;;;;;;-145.06;0.00;60892.56;5968492;23;20009;-91
2023/07/10 01:27:57;;;;;;;2.72;1.23;;;;;;;-145.06;0.00;60892.56;5946227;23;20232;-91
2023/07/10 01:30:38;;;;;;;1.73;1.10;;;;;;;23.35;0.00;60892.56;5945527;23;20009;-93
2023/07/10 01:33:23;;;;;;;1.58;1.13;;;;;;;23.31;0.00;104794.97;5946155;23;20233;-92
2023/07/10 01:36:04;;;;;;;1.20;1.10;;;;;;;23.28;0.00;60892.56;5952825;23;19992;-92
2023/07/10 01:38:47;;;;;;;1.77;1.40;;;;;;;-145.06;0.00;60892.56;5970414;23;20024;-91
2023/07/10 01:41:34;;;;;;;2.05;1.20;;;;;;;-145.06;0.00;60892.56;5957706;23;20013;-92
2023/07/10 01:44:30;;;;;;;1.17;0.98;;;;;;;-145.06;0.00;60892.56;5946629;23;20443;-93
2023/07/10 01:47:11;;;;;;;1.77;1.05;;;;;;;23.24;0.00;60892.56;5946352;23;20329;-91
2023/07/10 01:49:54;;;;;;;1.92;1.15;;;;;;;-145.06;0.00;60892.56;5945338;23;20302;-92
2023/07/10 01:52:33;;;;;;;1.60;1.13;;;;;;;-145.06;0.00;60892.56;5946162;23;20029;-91
2023/07/10 01:55:15;;;;;;;1.80;1.17;;;;;;;-145.06;0.00;60892.56;5945990;23;20004;-92
2023/07/10 01:57:54;;;;;;;2.03;1.15;;;;;;;-145.06;0.00;60892.56;5946498;23;20321;-92
2023/07/10 02:00:34;;;;;;;1.20;0.93;;;;;;;-145.06;0.00;60892.56;5945101;23;20009;-93
2023/07/10 02:03:13;;;;;;;1.98;1.52;;;;;;;-145.06;0.00;60892.56;5945815;23;20291;-93
2023/07/10 02:05:52;;;;;;;1.25;1.13;;;;;;;-145.06;0.00;60892.56;5976684;23;20036;-92
2023/07/10 02:08:31;;;;;;;1.98;1.20;;;;;;;-145.06;0.00;60892.56;5945818;23;20008;-91
2023/07/10 02:11:12;;;;;;;1.80;1.33;;;;;;;-145.06;0.00;60892.56;5944681;23;20001;-92
2023/07/10 02:13:51;;;;;;;1.90;1.30;;;;;;;-145.06;0.00;60892.56;5945655;23;20012;-92
2023/07/10 02:16:30;;;;;;;;;;;;;;;23.08;0.00;60892.56;5945690;23;20480;-92
2023/07/10 02:19:10;;;;;;;2.05;1.00;;;;;;;-145.06;0.00;60892.56;5966920;23;19908;-92
2023/07/10 02:21:49;;;;;;;1.05;0.90;;;;;;;-145.06;0.00;60892.56;5945514;23;20432;-91
2023/07/10 02:24:28;;;;;;;3.13;1.27;;;;;;;-145.06;0.00;60892.56;5977126;23;20013;-93
2023/07/10 02:27:07;;;;;;;1.60;1.30;;;;;;;-145.06;0.00;60892.56;5946168;23;20013;-92
2023/07/10 02:29:46;;;;;;;1.55;1.08;;;;;;;-145.06;0.00;60892.56;5944137;23;20036;-92
2023/07/10 02:32:26;;;;;;;1.23;0.95;;;;;;;-145.06;0.00;60892.56;5945255;23;20001;-92
2023/07/10 02:35:05;;;;;;;1.42;1.05;;;;;;;-145.06;0.00;60892.56;5944954;23;20017;-93
2023/07/10 02:37:44;;;;;;;1.85;1.10;;;;;;;-145.06;0.00;60892.56;5946355;23;20016;-91
2023/07/10 02:40:23;;;;;;;1.35;1.00;;;;;;;22.78;0.00;60892.56;5945401;23;20012;-92
2023/07/10 02:43:02;;;;;;;2.33;1.20;;;;;;;-145.06;0.00;60892.56;5945813;23;20009;-91
2023/07/10 02:45:41;;;;;;;1.15;1.00;;;;;;;-145.06;0.00;60892.56;5945601;23;20028;-90
2023/07/10 02:48:20;;;;;;;1.05;0.93;;;;;;;-145.06;0.00;60892.56;5947033;23;20092;-91
2023/07/10 02:51:00;;;;;;;1.20;1.00;;;;;;;-145.06;0.00;60892.56;5945595;23;20005;-92
2023/07/10 02:53:40;;;;;;;1.63;1.10;;;;;;;41.86;0.00;60892.56;5946364;23;20008;-92
2023/07/10 02:56:19;;;;;;;;;;;;;;;-145.06;0.00;60892.56;5978614;23;20040;-91
2023/07/10 02:58:58;;;;;;;1.10;0.77;;;;;;;-145.06;0.00;60892.56;5946312;23;19904;-92
2023/07/10 03:01:37;;;;;;;2.28;1.23;;;;;;;-145.06;0.00;60892.56;5978224;23;20005;-93
2023/07/10 03:04:16;;;;;;;1.38;0.98;;;;;;;-145.06;0.00;60892.56;5948310;23;20080;-91
2023/07/10 03:06:55;;;;;;;1.70;0.95;;;;;;;-145.06;0.00;60892.56;5947554;23;20519;-92
2023/07/10 03:09:34;;;;;;;1.50;0.75;;;;;;;-145.06;0.00;60892.56;5948024;23;20123;-92
2023/07/10 03:12:13;;;;;;;1.75;0.85;;;;;;;-145.06;0.00;60892.56;5946618;23;20001;-92
2023/07/10 03:14:53;;;;;;;1.48;0.93;;;;;;;-145.06;0.00;60892.56;5947800;23;20009;-92
2023/07/10 03:17:32;;;;;;;1.35;0.80;;;;;;;-145.06;0.00;60892.56;5946766;23;20009;-92
2023/07/10 03:20:11;;;;;;;1.92;1.08;;;;;;;-145.06;0.00;60892.56;5947243;23;20013;-92
2023/07/10 03:22:51;;;;;;;0.98;0.60;;;;;;;-145.06;0.00;60892.56;5947354;23;20009;-91
2023/07/10 03:25:30;;;;;;;1.10;0.80;;;;;;;-145.06;0.00;60892.56;5945846;23;20013;-91
2023/07/10 03:28:08;;;;;;;1.40;1.00;;;;;;;-145.06;0.00;60892.56;5947468;23;20009;-92
2023/07/10 03:30:48;;;;;;;1.38;0.65;;;;;;;-145.06;0.00;60892.56;5946504;23;20009;-93
2023/07/10 03:33:27;;;;;;;1.85;0.80;;;;;;;26.27;0.00;60892.56;5946931;23;20005;-91
2023/07/10 03:36:07;;;;;;;1.15;0.63;;;;;;;-145.06;0.00;60892.56;5947212;23;20012;-92
2023/07/10 03:38:46;;;;;;;2.08;1.02;;;;;;;-145.06;0.00;60892.56;5947518;23;20365;-91
2023/07/10 03:41:26;;;;;;;1.92;0.88;;;;;;;-145.06;0.00;60892.56;5946908;23;20017;-91
2023/07/10 03:44:06;;;;;;;1.10;0.80;;;;;;;-145.06;0.00;60892.56;5947641;23;20005;-93
2023/07/10 03:46:44;;;;;;;1.20;0.93;;;;;;;-145.06;0.00;60892.56;5946395;23;20013;-92
2023/07/10 03:49:25;;;;;;;1.35;0.95;;;;;;;-145.06;0.00;60892.56;5979349;23;20259;-93
2023/07/10 03:52:04;;;;;;;1.23;0.80;;;;;;;-145.06;0.00;60892.56;5947874;23;20313;-93
2023/07/10 03:54:43;;;;;;;1.40;0.80;;;;;;;-145.06;0.00;60892.56;5946678;23;20318;-92
2023/07/10 03:57:22;;;;;;;0.98;0.70;;;;;;;-145.06;0.00;60892.56;5949243;23;20009;-92
2023/07/10 04:00:04;;;;;;;1.55;0.63;;;;;;;-145.06;0.00;60892.56;5947079;23;20013;-91
2023/07/10 04:02:43;;;;;;;1.33;0.80;;;;;;;-145.06;0.00;60892.56;5946635;23;20447;-91
2023/07/10 04:05:22;;;;;;;1.10;0.90;;;;;;;-145.06;0.00;60892.56;5947559;23;20013;-90
2023/07/10 04:08:01;;;;;;;1.40;1.00;;;;;;;-145.06;0.00;60892.56;5947267;23;20515;-90
2023/07/10 04:10:40;;;;;;;0.93;0.75;;;;;;;-145.06;0.00;60892.56;5945721;23;20013;-91
2023/07/10 04:13:19;;;;;;;1.00;0.80;;;;;;;-145.06;0.00;60892.56;5946289;23;20008;-91
2023/07/10 04:16:02;;;;;;;;;;;;;;;-145.06;0.00;60892.56;5978850;23;20032;-91
2023/07/10 04:18:42;;;;;;;1.20;0.85;;;;;;;-145.06;0.00;60892.56;5946830;23;19912;-90
2023/07/10 04:21:24;;;;;;;0.70;0.57;;;;;;;-145.06;0.00;60892.56;5947057;23;20024;-91
2023/07/10 04:24:04;;;;;;;1.52;0.68;;;;;;;-145.06;0.00;60892.56;5947553;23;20056;-91
2023/07/10 04:26:43;;;;;;;1.38;0.80;;;;;;;-145.06;0.00;60892.56;5947251;23;20005;-90
2023/07/10 04:29:24;;;;;;;1.67;0.70;;;;;;;-145.06;0.00;60892.56;5947492;23;20526;-91
2023/07/10 04:32:03;;;;;;;2.45;0.70;;;;;;;-145.06;0.00;60892.56;5947946;23;20005;-91
2023/07/10 04:34:41;;;;;;;1.13;0.67;;;;;;;-145.06;0.00;60892.56;5947496;23;20028;-90
2023/07/10 04:37:20;;;;;;;2.15;1.13;;;;;;;-145.06;0.00;60892.56;5947892;23;20236;-91
2023/07/10 04:39:59;;;;;;;1.13;0.70;;;;;;;-145.06;0.00;60892.56;5979694;23;20005;-90
2023/07/10 04:42:38;;;;;;;1.92;1.30;;;;;;;-145.06;0.00;60892.56;5947416;23;20084;-91
2023/07/10 04:45:17;;;;;;;1.65;1.00;;;;;;;-145.06;0.00;60892.56;5947409;23;20041;-90
2023/07/10 04:47:57;;;;;;;1.23;0.90;;;;;;;-145.06;0.00;60892.56;5948070;23;20013;-90
2023/07/10 04:50:36;;;;;;;;;;;;;;;-145.06;0.00;60892.56;5948023;23;20013;-91
2023/07/10 04:53:16;;;;;;;2.15;1.15;;;;;;;-145.06;0.00;60892.56;5971652;23;20067;-92
2023/07/10 04:55:56;;;;;;;2.25;1.13;;;;;;;62.66;0.00;60892.56;5950320;23;20013;-91
2023/07/10 04:58:55;;;;;;;1.65;1.00;;;;;;;-145.06;0.00;60892.56;5951319;23;20009;-91
2023/07/10 05:01:34;;;;;;;2.08;1.20;;;;;;;-145.06;0.00;60892.56;5974050;23;20001;-92
2023/07/10 05:04:13;;;;;;;2.03;1.20;;;;;;;-145.06;0.00;60892.56;5967113;23;20013;-91
2023/07/10 05:06:57;;;;;;;2.65;1.45;;;;;;;-145.06;0.00;60892.56;5952181;23;20013;-91
2023/07/10 05:09:37;;;;;;;2.45;1.42;;;;;;;-145.06;0.00;60892.56;5951123;23;20001;-90
2023/07/10 05:12:16;;;;;;;3.65;1.17;;;;;;;-145.06;0.00;60892.56;5950296;23;20001;-90
2023/07/10 05:14:55;;;;;;;1.98;1.10;;;;;;;-145.06;0.00;60892.56;5950921;23;20013;-90
2023/07/10 05:17:34;;;;;;;2.35;1.52;;;;;;;23.67;0.00;60892.56;5951670;23;20372;-92
2023/07/10 05:20:14;;;;;;;2.00;1.33;;;;;;;62.66;0.00;60892.56;5951097;23;20091;-91
2023/07/10 05:22:52;;;;;;;1.85;1.25;;;;;;;-145.06;0.00;60892.56;5951955;23;20020;-91
2023/07/10 05:25:32;;;;;;;3.00;1.50;;;;;;;-145.06;0.00;60892.56;5950335;23;20391;-92
2023/07/10 05:28:11;;;;;;;1.98;1.25;;;;;;;-145.06;0.00;60892.56;5951343;23;20009;-90
2023/07/10 05:30:50;;;;;;;1.87;1.33;;;;;;;-145.06;0.00;60892.56;5950658;23;20440;-90
2023/07/10 05:33:29;;;;;;;1.33;1.20;;;;;;;22.37;0.00;60892.56;5977860;23;20228;-90
2023/07/10 05:36:11;;;;;;;1.40;1.17;;;;;;;-145.06;0.00;60892.56;5946070;23;20029;-91
2023/07/10 05:38:50;;;;;;;2.45;1.20;;;;;;;-145.06;0.00;60892.56;5946164;23;20012;-91
2023/07/10 05:41:29;;;;;;;2.10;1.35;;;;;;;-145.06;0.00;60892.56;5945852;23;20001;-90
2023/07/10 05:44:08;;;;;;;3.20;1.10;;;;;;;-145.06;0.00;60892.56;5946097;23;20333;-90
2023/07/10 05:46:47;;;;;;;2.55;1.67;;;;;;;-145.06;0.00;60892.56;5945116;23;20459;-91
2023/07/10 05:49:26;;;;;;;2.13;1.40;;;;;;;-145.06;0.00;60892.56;5946758;23;20435;-91
2023/07/10 05:52:06;;;;;;;2.10;1.00;;;;;;;-145.06;0.00;60892.56;5980493;23;20004;-90
2023/07/10 05:54:45;;;;;;;3.03;1.60;;;;;;;-145.06;0.00;60892.56;5947406;23;20009;-91
2023/07/10 05:57:24;;;;;;;3.13;1.63;;;;;;;-145.06;0.00;60892.56;5949343;23;20005;-91
2023/07/10 06:00:03;;;;;;;2.80;1.30;;;;;;;21.32;0.00;60892.56;5948817;23;20004;-91
2023/07/10 06:02:42;;;;;;;3.05;1.60;;;;;;;-145.06;0.00;60892.56;5950450;23;20001;-91
2023/07/10 06:05:21;;;;;;;1.40;1.10;;;;;;;-145.06;0.00;60892.56;5950372;23;20009;-89
2023/07/10 06:08:00;;;;;;;1.63;1.40;;;;;;;-145.06;0.00;60892.56;5950069;23;20009;-91
2023/07/10 06:10:39;;;;;;;2.47;0.90;;;;;;;-145.06;0.00;60892.56;5949504;23;20032;-91
2023/07/10 06:13:19;;;;;;;1.60;0.90;;;;;;;-145.06;0.00;60892.56;5948695;23;20009;-92
2023/07/10 06:15:59;;;;;;;2.13;1.25;;;;;;;-145.06;0.00;60892.56;5950397;23;20009;-91
2023/07/10 06:18:39;;;;;;;1.45;1.00;;;;;;;-145.06;0.00;60892.56;5949686;23;20013;-92
2023/07/10 06:21:18;;;;;;;1.33;0.90;;;;;;;-145.06;0.00;60892.56;5948778;23;20250;-92
2023/07/10 06:23:57;;;;;;;1.50;0.80;;;;;;;-145.06;0.00;60892.56;5950156;23;20037;-92
2023/07/10 06:26:36;;;;;;;1.27;0.80;;;;;;;-145.06;0.00;60892.56;5949245;23;20013;-92
2023/07/10 06:29:15;;;;;;;1.67;0.93;;;;;;;62.66;0.00;60892.56;5949710;23;20013;-91
2023/07/10 06:31:54;;;;;;;1.75;0.75;;;;;;;22.37;0.00;60892.56;5948952;23;20032;-91
2023/07/10 06:34:33;;;;;;;1.45;0.70;;;;;;;-145.06;0.00;60892.56;5948342;23;20008;-92
2023/07/10 06:37:12;;;;;;;1.30;0.90;;;;;;;-145.06;0.00;60892.56;5949585;23;20013;-91
2023/07/10 06:40:08;;;;;;;1.45;0.90;;;;;;;21.55;0.00;60892.56;5949680;23;20009;-92
2023/07/10 06:42:47;;;;;;;1.73;0.70;;;;;;;-145.06;0.00;60892.56;5949313;23;20436;-90
2023/07/10 06:45:26;;;;;;;1.23;0.70;;;;;;;-145.06;0.00;60892.56;5949743;23;20017;-92
2023/07/10 06:48:06;;;;;;;1.20;0.93;;;;;;;-145.06;0.00;60892.56;5948457;23;20436;-91
2023/07/10 06:50:56;;;;;;;1.77;0.60;;;;;;;-145.06;0.00;60892.56;5948372;23;20321;-92
2023/07/10 06:53:34;;;;;;;;;;;;;;;-145.06;0.00;60892.56;5949505;23;20436;-91
2023/07/10 06:56:13;;;;;;;1.25;0.60;;;;;;;-145.06;0.00;60892.56;5968852;23;19936;-92
2023/07/10 06:58:52;;;;;;;1.10;0.50;;;;;;;-145.06;0.00;60892.56;5949186;23;20013;-91
2023/07/10 07:01:31;;;;;;;0.90;0.40;;;;;;;-145.06;0.00;60892.56;5948093;23;20009;-91
2023/07/10 07:04:12;;;;;;;1.45;0.60;;;;;;;-145.06;0.00;60892.56;5949980;23;20092;-90
2023/07/10 07:06:54;;;;;;;0.90;0.57;;;;;;;-145.06;0.00;60892.56;5948804;23;20440;-91
2023/07/10 07:09:33;;;;;;;0.75;0.57;;;;;;;-145.06;0.00;60892.56;5948155;23;20009;-92
2023/07/10 07:12:12;;;;;;;1.65;0.80;;;;;;;-145.06;0.00;60892.56;5980752;23;20001;-91
2023/07/10 07:14:51;;;;;;;0.88;0.55;;;;;;;-145.06;0.00;60892.56;5948780;23;20329;-92
2023/07/10 07:17:31;;;;;;;1.35;0.80;;;;;;;-145.06;0.00;60892.56;5949389;23;20001;-91
2023/07/10 07:20:11;;;;;;;0.55;0.50;;;;;;;-145.06;0.00;60892.56;5948587;23;20448;-91
2023/07/10 07:22:50;;;;;;;0.75;0.40;;;;;;;-145.06;0.00;60892.56;5949557;23;20496;-92
2023/07/10 07:25:30;;;;;;;1.88;0.60;;;;;;;-145.06;0.00;60892.56;5948430;23;20017;-91
2023/07/10 07:28:09;;;;;;;0.88;0.52;;;;;;;-145.06;0.00;60892.56;5949725;23;20033;-92
2023/07/10 07:30:48;;;;;;;0.55;0.40;;;;;;;-145.06;0.00;60892.56;5948300;23;20009;-92
2023/07/10 07:33:27;;;;;;;0.70;0.45;;;;;;;-145.06;0.00;60892.56;5981491;23;20044;-91
2023/07/10 07:36:06;;;;;;;0.55;0.30;;;;;;;-145.06;0.00;60892.56;5948628;23;20428;-91
2023/07/10 07:38:45;;;;;;;1.40;0.57;;;;;;;41.86;0.00;60892.56;5950159;23;20056;-93
2023/07/10 07:41:23;;;;;;;1.08;0.57;;;;;;;-145.06;0.00;60892.56;5949157;23;20005;-91
2023/07/10 07:44:03;;;;;;;1.95;0.57;;;;;;;-145.06;0.00;60892.56;5948365;23;20092;-91
2023/07/10 07:46:42;;;;;;;0.90;0.43;;;;;;;-145.06;0.00;60892.56;5949407;23;20281;-91
2023/07/10 07:49:23;;;;;;;1.02;0.50;;;;;;;22.49;0.00;60892.56;5950196;23;20088;-91
2023/07/10 07:52:03;;;;;;;0.93;0.57;;;;;;;-145.06;0.00;60892.56;5950048;23;20009;-91
2023/07/10 07:54:42;;;;;;;1.42;0.52;;;;;;;-145.06;0.00;60892.56;5949520;23;20009;-91
2023/07/10 07:57:22;;;;;;;0.80;0.50;;;;;;;-145.06;0.00;60892.56;5952244;23;20009;-93
2023/07/10 08:01:06;;;;;;;;;;;;;;;;;;;;;
2023/07/10 08:07:34;;;;;;;0.47;0.40;;;;;;;-145.06;0.00;60892.56;5850720;23;20006;-92
2023/07/10 08:10:24;;;;;;;0.45;0.30;;;;;;;-145.06;0.00;60892.56;5867451;23;20010;-92
2023/07/10 08:13:13;;;;;;;0.52;0.32;;;;;;;187.52;0.00;60892.56;5953461;23;20032;-94
2023/07/10 08:15:53;;;;;;;1.08;0.50;;;;;;;-145.06;0.00;60892.56;5953808;23;20005;-92
2023/07/10 08:18:32;;;;;;;1.05;0.30;;;;;;;-145.06;0.00;60892.56;5955763;23;20009;-93
2023/07/10 08:21:13;;;;;;;1.02;0.63;;;;;;;-145.06;0.00;60892.56;5974218;23;20017;-92
2023/07/10 08:23:52;;;;;;;0.50;0.30;;;;;;;-145.06;0.00;60892.56;5976037;23;20001;-92
2023/07/10 08:26:31;;;;;;;1.05;0.40;;;;;;;-145.06;0.00;60892.56;5953860;23;20033;-92
2023/07/10 08:29:31;;;;;;;1.42;0.52;;;;;;;-145.06;0.00;60892.56;5955849;23;20083;-92
2023/07/10 08:32:10;;;;;;;1.60;0.50;;;;;;;-145.06;0.00;60892.56;5952201;23;19997;-92
2023/07/10 08:34:49;;;;;;;1.20;0.60;;;;;;;-145.06;0.00;60892.56;5951303;23;20009;-91
2023/07/10 08:37:28;;;;;;;0.77;0.40;;;;;;;-145.06;0.00;60892.56;5949575;23;20416;-90
2023/07/10 08:40:15;;;;;;;0.47;0.30;;;;;;;-145.06;0.00;60892.56;5950429;23;20009;-92
2023/07/10 08:42:54;;;;;;;1.33;0.40;;;;;;;-145.06;0.00;60892.56;5948962;23;20005;-90
2023/07/10 08:45:36;;;;;;;1.25;0.40;;;;;;;-145.06;0.00;60892.56;5946213;23;20323;-90
2023/07/10 08:48:47;;;;;;;0.50;0.40;;;;;;;24.39;0.00;60892.56;5946530;23;20370;-90
2023/07/10 08:51:52;;;;;;;0.60;0.40;;;;;;;24.43;0.00;60892.56;5898036;23;20415;-91
2023/07/10 08:54:31;;;;;;;0.60;0.30;;;;;;;24.50;0.00;60892.56;5947508;23;20001;-91
2023/07/10 08:57:31;;;;;;;0.40;0.32;;;;;;;24.55;0.00;60892.56;5981313;23;20009;-93
2023/07/10 09:00:14;;;;;;;0.47;0.30;;;;;;;-145.06;0.00;60892.56;5979801;23;20001;-90
2023/07/10 09:03:34;;;;;;;0.40;0.30;;;;;;;-145.06;0.00;60892.56;5980968;23;19997;-91
2023/07/10 09:06:23;;;;;;;0.63;0.40;;;;;;;-145.06;0.00;60892.56;5948179;23;20016;-90
2023/07/10 09:09:12;;;;;;;1.27;0.40;;;;;;;-145.06;0.00;60892.56;5979643;23;20329;-91
2023/07/10 09:11:52;;;;;;;0.50;0.30;;;;;;;-145.06;0.00;60892.56;5948687;23;20325;-91
2023/07/10 09:14:46;;;;;;;0.77;0.40;;;;;;;-145.06;0.00;60892.56;5949392;23;20011;-92
2023/07/10 09:17:48;;;;;;;0.65;0.50;;;;;;;-145.06;0.00;60892.56;5952487;23;20012;-91
2023/07/10 09:20:28;;;;;;;0.52;0.30;;;;;;;25.13;0.00;60892.56;5951592;23;20009;-92
2023/07/10 09:23:28;;;;;;;0.90;0.30;;;;;;;-145.06;0.00;60892.56;5951607;23;20001;-91
2023/07/10 09:26:13;;;;;;;0.30;0.30;;;;;;;-145.06;0.00;60892.56;5983296;23;20005;-91
2023/07/10 09:29:14;;;;;;;0.50;0.30;;;;;;;-145.06;0.00;60892.56;5950784;23;20083;-93
2023/07/10 09:32:03;;;;;;;0.50;0.30;;;;;;;-145.06;0.00;60892.56;5951002;23;20001;-93
2023/07/10 09:34:49;;;;;;;0.80;0.40;;;;;;;-145.06;0.00;60892.56;5951739;23;20031;-92
2023/07/10 09:37:34;;;;;;;0.80;0.40;;;;;;;-145.06;0.00;60892.56;5982745;23;20233;-93
2023/07/10 09:40:18;;;;;;;0.63;0.52;;;;;;;-145.06;0.00;60892.56;5950703;23;20001;-92
2023/07/10 09:43:03;;;;;;;0.60;0.40;;;;;;;-145.06;0.00;60892.56;5952038;23;20432;-92
2023/07/10 09:45:51;;;;;;;0.50;0.47;;;;;;;-145.06;0.00;60892.56;5951577;23;20005;-92
2023/07/10 09:48:38;;;;;;;0.93;0.50;;;;;;;-145.06;0.00;60892.56;5952290;23;20103;-93
2023/07/10 09:51:18;;;;;;;0.60;0.40;;;;;;;-145.06;0.00;60892.56;5952228;23;20428;-94
2023/07/10 09:54:06;;;;;;;1.17;0.50;;;;;;;-145.06;0.00;60892.56;5952314;23;20005;-94
2023/07/10 09:56:47;;;;;;;0.88;0.38;;;;;;;-145.06;0.00;60892.56;5952009;23;20009;-93
2023/07/10 09:59:31;;;;;;;0.30;0.30;;;;;;;-145.06;0.00;60892.56;5951593;23;20001;-93
2023/07/10 10:02:23;;;;;;;0.55;0.30;;;;;;;-145.06;0.00;60892.56;5951552;23;20001;-93
2023/07/10 10:05:08;;;;;;;0.75;0.30;;;;;;;-145.06;0.00;60892.56;5949768;23;20009;-91
2023/07/10 10:07:51;;;;;;;0.65;0.40;;;;;;;-145.06;0.00;60892.56;5947745;23;20005;-91
2023/07/10 10:11:17;;;;;;;0.30;0.30;;;;;;;-145.06;0.00;60892.56;5950855;23;20516;-92
2023/07/10 10:14:06;;;;;;;0.70;0.30;;;;;;;-145.06;0.00;60892.56;5951285;23;20443;-92
2023/07/10 10:17:02;;;;;;;0.55;0.30;;;;;;;-145.06;0.00;60892.56;5952147;23;20452;-92
2023/07/10 10:20:00;;;;;;;0.60;0.40;;;;;;;-145.06;0.00;60892.56;5954018;23;20012;-92
2023/07/10 10:22:49;;;;;;;1.33;0.55;;;;;;;41.86;0.00;60892.56;5952937;23;19997;-93
2023/07/10 10:26:21;;;;;;;;;;;;;;;;;;;;;
2023/07/10 10:29:38;;;;;;;0.85;0.50;;;;;;;-145.06;0.00;60892.56;5985908;23;20428;-93
2023/07/10 10:32:59;;;;;;;0.30;0.20;;;;;;;-145.06;0.00;60892.56;5953804;23;20013;-93
2023/07/10 10:36:19;;;;;;;0.32;0.17;;;;;;;-145.06;0.00;60892.56;5952306;23;20009;-93
2023/07/10 10:39:09;;;;;;;1.00;0.40;;;;;;;-145.06;0.00;60892.56;5950893;23;20005;-93
2023/07/10 10:41:56;;;;;;;0.50;0.30;;;;;;;-145.06;0.00;60892.56;5950014;23;20005;-93
2023/07/10 10:45:05;;;;;;;0.60;0.40;;;;;;;-145.06;0.00;60892.56;5949801;23;20460;-92
2023/07/10 10:47:47;;;;;;;0.75;0.32;;;;;;;-145.06;0.00;60892.56;5950998;23;20005;-92
2023/07/10 10:50:56;;;;;;;0.50;0.30;;;;;;;-145.06;0.00;60892.56;5949753;23;20012;-92
2023/07/10 10:53:52;;;;;;;0.43;0.25;;;;;;;-145.06;0.00;60892.56;5945834;23;20013;-91
2023/07/10 10:56:36;;;;;;;0.43;0.32;;;;;;;104.26;0.00;60892.56;5947269;23;20456;-90
2023/07/10 10:59:36;;;;;;;0.68;0.30;;;;;;;-145.06;0.00;60892.56;5947303;23;20012;-91
2023/07/10 11:02:27;;;;;;;0.90;0.57;;;;;;;-145.06;0.00;60892.56;5978329;23;20384;-90
2023/07/10 11:05:29;;;;;;;1.38;0.65;;;;;;;-145.06;0.00;60892.56;5947083;23;20033;-90
2023/07/10 11:08:17;;;;;;;0.93;0.50;;;;;;;-145.06;0.00;60892.56;5947618;23;20001;-91
2023/07/10 11:10:57;;;;;;;1.42;0.52;;;;;;;-145.06;0.00;60892.56;5947312;23;20036;-92
2023/07/10 11:13:39;;;;;;;0.57;0.32;;;;;;;-145.06;0.00;60892.56;5946807;23;20005;-92
2023/07/10 11:16:18;;;;;;;0.77;0.40;;;;;;;27.93;0.00;60892.56;5946400;23;20009;-91
2023/07/10 11:19:00;;;;;;;0.70;0.40;;;;;;;-145.06;0.00;60892.56;5946762;23;20016;-92
2023/07/10 11:21:39;;;;;;;0.77;0.30;;;;;;;-145.06;0.00;60892.56;5944375;23;20001;-91
2023/07/10 11:24:31;;;;;;;3.85;0.30;;;;;;;-145.06;0.00;60892.56;5948175;23;20436;-91
2023/07/10 11:27:26;;;;;;;2.58;0.30;;;;;;;62.66;0.00;60892.56;5949633;23;20009;-91
2023/07/10 11:30:14;;;;;;;0.60;0.30;;;;;;;-145.06;0.00;60892.56;5981860;23;20013;-90
2023/07/10 11:33:01;;;;;;;0.82;0.40;;;;;;;-145.06;0.00;60892.56;5950738;23;20001;-92
2023/07/10 11:36:13;;;;;;;0.28;0.20;;;;;;;187.52;0.00;60892.56;5948485;23;20381;-91
2023/07/10 11:39:11;;;;;;;1.08;0.40;;;;;;;28.63;0.00;60892.56;5949443;23;20005;-92
2023/07/10 11:41:50;;;;;;;0.20;0.13;;;;;;;28.64;0.00;84510.56;5948657;23;20001;-91
2023/07/10 11:44:35;;;;;;;0.20;0.20;;;;;;;28.63;0.00;60892.56;5949322;23;20009;-93
2023/07/10 11:47:28;;;;;;;0.20;0.20;;;;;;;-145.06;0.00;60892.56;5950016;23;20013;-94
2023/07/10 11:50:23;;;;;;;0.40;0.20;;;;;;;-145.06;0.00;60892.56;5985329;23;20008;-92
2023/07/10 11:53:21;;;;;;;0.28;0.28;;;;;;;-145.06;0.00;60892.56;5946794;23;20021;-93
2023/07/10 11:56:00;;;;;;;0.20;0.20;;;;;;;-145.06;0.00;60892.56;5951196;23;20005;-91
2023/07/10 11:58:41;;;;;;;0.28;0.20;;;;;;;-145.06;0.00;60892.56;5950663;23;20009;-91
2023/07/10 12:01:21;;;;;;;0.50;0.30;;;;;;;-145.06;0.00;60892.56;5922675;23;20166;-92
2023/07/10 12:04:12;;;;;;;0.22;0.22;;;;;;;-145.06;0.00;60892.56;5922320;23;20014;-92
2023/07/10 12:06:51;;;;;;;1.15;0.55;;;;;;;-145.06;0.00;60892.56;5922382;23;20511;-92
2023/07/10 12:09:30;;;;;;;0.30;0.20;;;;;;;-145.06;0.00;60892.56;5922006;23;20025;-93
2023/07/10 12:12:10;;;;;;;0.40;0.30;;;;;;;28.82;0.00;82696.94;5921942;23;20002;-92
2023/07/10 12:14:50;;;;;;;0.38;0.20;;;;;;;28.84;0.00;60892.56;5922443;23;20006;-91
2023/07/10 12:17:32;;;;;;;0.47;0.40;;;;;;;28.85;0.00;60892.56;5921080;23;20010;-91
2023/07/10 12:20:21;;;;;;;1.00;0.20;;;;;;;-145.06;0.00;60892.56;5919872;23;20017;-91
2023/07/10 12:23:09;;;;;;;0.45;0.28;;;;;;;-145.06;0.00;60892.56;5920914;23;20006;-92
2023/07/10 12:25:52;;;;;;;0.47;0.32;;;;;;;-145.06;0.00;60892.56;5920565;23;20460;-91
2023/07/10 12:28:32;;;;;;;0.52;0.20;;;;;;;-145.06;0.00;60892.56;5920724;23;20014;-91
2023/07/10 12:31:14;;;;;;;0.57;0.30;;;;;;;-145.06;0.00;60892.56;5919520;23;20452;-93
2023/07/10 12:33:53;;;;;;;0.88;0.20;;;;;;;-145.06;0.00;60892.56;5920331;23;20005;-91
2023/07/10 12:36:35;;;;;;;0.25;0.17;;;;;;;-145.06;0.00;60892.56;5896495;23;20010;-92
2023/07/10 12:39:15;;;;;;;1.10;0.40;;;;;;;-145.06;0.00;60892.56;5858933;23;20437;-90
2023/07/10 12:41:55;;;;;;;0.60;0.43;;;;;;;-145.06;0.00;60892.56;5854428;23;20023;-91
2023/07/10 12:44:43;;;;;;;0.57;0.35;;;;;;;-145.06;0.00;60892.56;5882941;23;20285;-90
2023/07/10 12:47:22;;;;;;;0.82;0.20;;;;;;;-145.06;0.00;60892.56;5853556;23;20023;-90
2023/07/10 12:50:02;;;;;;;0.80;0.40;;;;;;;-145.06;0.00;60892.56;5880158;23;20339;-91
2023/07/10 12:52:41;;;;;;;0.45;0.25;;;;;;;-145.06;0.00;60892.56;5860502;23;20501;-90